Список аэропортов
Фактическая погода:

15 августа, 23:30
Температура: +33°C (+33.0*)
Ветер: западный 2 м/с
Давление: *761 мм
Без существ. явл.
Время (МСК)Темп. СВетерВлажностьДавлениеОблачностьОсадки
21:00+34ЮЗ, 1 м/с17%1012 гПаясно
22:00+31З, 1 м/с24%1013 гПамалооблачно
23:00+28С, 2 м/с32%1014 гПаясно
16 августа
00:00+26СВ, 2 м/с40%1014 гПас прояснениями
01:00+26В, 2 м/с44%1015 гПас прояснениями
02:00+25В, 2 м/с57%1015 гПас прояснениями
03:00+25ЮВ, 3 м/с69%1015 гПамалооблачно
04:00+24В, 2 м/с75%1015 гПамалооблачно
05:00+22В, 2 м/с82%1015 гПамалооблачно
06:00+21СВ, 2 м/с87%1015 гПамалооблачно
07:00+21СВ, 2 м/с91%1015 гПамалооблачно
08:00+20СВ, 2 м/с94%1015 гПаясно
09:00+20СВ, 2 м/с94%1016 гПамалооблачно
10:00+22В, 2 м/с85%1015 гПамалооблачно
11:00+23ЮВ, 1 м/с67%1015 гПас прояснениями
12:00+25ЮВ, 1 м/с55%1015 гПамалооблачно
13:00+28ЮВ, 1 м/с48%1014 гПаоблачно
14:00+30Ю, 1 м/с40%1013 гПаоблачно
15:00+32ЮЗ, 2 м/с33%1013 гПас прояснениями
16:00+33ЮЗ, 3 м/с28%1012 гПас прояснениями
17:00+33З, 4 м/с31%1011 гПас прояснениямисл. дождь
18:00+32ЮЗ, 4 м/с34%1011 гПамалооблачнодождь
19:00+33ЮЗ, 3 м/с27%1010 гПаясно
20:00+30З, 3 м/с39%1011 гПас прояснениямидождь
21:00+29Ю, 1 м/с48%1011 гПас прояснениямидождь
22:00+27З, 1 м/с54%1012 гПаоблачнодождь
23:00+24ЮВ, 2 м/с66%1013 гПаоблачнодождь
17 августа
00:00+23Ю, 2 м/с73%1014 гПамалооблачно
01:00+22СВ, 2 м/с80%1014 гПамалооблачно
02:00+20СВ, 2 м/с87%1014 гПамалооблачно
03:00+20СВ, 3 м/с90%1014 гПаясно
04:00+20СВ, 5 м/с91%1015 гПас прояснениями
05:00+20СВ, 5 м/с89%1015 гПаоблачно
06:00+19СВ, 5 м/с87%1015 гПаоблачно
07:00+19СВ, 4 м/с85%1015 гПаоблачно
08:00+18СВ, 4 м/с84%1016 гПас прояснениями
09:00+18СВ, 3 м/с83%1016 гПас прояснениями
10:00+19СВ, 4 м/с76%1017 гПаоблачно
11:00+22СВ, 5 м/с64%1017 гПамалооблачно
12:00+23СВ, 6 м/с57%1017 гПамалооблачно
13:00+24СВ, 5 м/с52%1017 гПамалооблачно
14:00+25СВ, 5 м/с47%1017 гПас прояснениями
15:00+26СВ, 5 м/с44%1017 гПас прояснениями
16:00+27СВ, 4 м/с40%1016 гПас прояснениями
17:00+27СВ, 5 м/с38%1016 гПас прояснениями
18:00+26СВ, 5 м/с39%1015 гПаоблачно
19:00+26СВ, 5 м/с39%1016 гПаоблачно
20:00+26СВ, 6 м/с43%1016 гПаоблачно
21:00+24СВ, 7 м/с49%1017 гПас прояснениями